createdAt,value
2018-10-17T00:02:20.019Z,11.30
2018-10-17T00:04:48.208Z,11.20
2018-10-17T00:07:16.531Z,11.20
2018-10-17T00:09:44.733Z,11.10
2018-10-17T00:12:12.996Z,11.10
2018-10-17T00:14:41.239Z,11.10
2018-10-17T00:17:09.566Z,10.90
2018-10-17T00:19:38.546Z,10.80
2018-10-17T00:22:06.760Z,10.70
2018-10-17T00:24:35.025Z,10.70
2018-10-17T00:27:03.369Z,10.80
2018-10-17T00:29:32.375Z,10.50
2018-10-17T00:32:00.587Z,10.50
2018-10-17T00:34:28.792Z,10.50
2018-10-17T00:36:57.837Z,10.40
2018-10-17T00:39:26.080Z,10.40
2018-10-17T00:41:55.063Z,10.30
2018-10-17T00:44:24.083Z,10.30
2018-10-17T00:46:52.368Z,10.30
2018-10-17T00:49:20.555Z,10.30
2018-10-17T00:51:48.800Z,10.20
2018-10-17T00:54:17.768Z,10.30
2018-10-17T00:56:45.991Z,10.30
2018-10-17T00:59:14.238Z,10.30
2018-10-17T01:01:42.437Z,10.20
2018-10-17T01:04:10.639Z,10.20
2018-10-17T01:06:39.627Z,10.20
2018-10-17T01:09:07.827Z,10.10
2018-10-17T01:11:36.061Z,10.20
2018-10-17T01:14:04.307Z,10.20
2018-10-17T01:16:33.353Z,10.20
2018-10-17T01:19:01.544Z,10.20
2018-10-17T01:21:29.814Z,10.20
2018-10-17T01:23:58.051Z,10.10
2018-10-17T01:26:26.258Z,10.10
2018-10-17T01:28:54.565Z,10.00
2018-10-17T01:31:22.717Z,10.00
2018-10-17T01:33:50.963Z,10.00
2018-10-17T01:36:19.219Z,10.00
2018-10-17T01:38:48.214Z,10.00
2018-10-17T01:41:17.337Z,9.90
2018-10-17T01:43:45.487Z,9.90
2018-10-17T01:46:14.467Z,9.60
2018-10-17T01:48:42.711Z,9.50
2018-10-17T01:51:10.927Z,9.50
2018-10-17T01:53:39.927Z,9.50
2018-10-17T01:56:08.939Z,9.40
2018-10-17T01:58:37.175Z,9.40
2018-10-17T02:01:05.439Z,9.40
2018-10-17T02:03:33.634Z,9.30
2018-10-17T02:06:01.837Z,9.30
2018-10-17T02:08:30.080Z,9.30
2018-10-17T02:10:58.365Z,9.30
2018-10-17T02:13:26.538Z,9.30
2018-10-17T02:15:54.755Z,9.30
2018-10-17T02:18:22.958Z,9.30
2018-10-17T02:20:51.176Z,9.30
2018-10-17T02:23:20.183Z,9.30
2018-10-17T02:25:49.200Z,9.30
2018-10-17T02:28:17.398Z,9.30
2018-10-17T02:30:45.654Z,9.30
2018-10-17T02:33:13.895Z,9.30
2018-10-17T02:35:42.094Z,9.20
2018-10-17T02:38:10.296Z,9.10
2018-10-17T02:40:38.524Z,9.10
2018-10-17T02:43:07.541Z,9.00
2018-10-17T02:45:36.513Z,9.10
2018-10-17T02:48:05.559Z,9.10
2018-10-17T02:50:33.756Z,9.10
2018-10-17T02:53:02.028Z,9.10
2018-10-17T02:55:31.033Z,9.00
2018-10-17T02:57:59.215Z,9.00
2018-10-17T03:00:28.236Z,9.00
2018-10-17T03:02:56.500Z,9.00
2018-10-17T03:05:25.440Z,9.00
2018-10-17T03:07:53.712Z,9.10
2018-10-17T03:10:21.950Z,9.10
2018-10-17T03:12:50.989Z,9.00
2018-10-17T03:15:19.190Z,9.00
2018-10-17T03:17:47.504Z,8.90
2018-10-17T03:20:15.646Z,8.90
2018-10-17T03:22:43.908Z,8.90
2018-10-17T03:25:13.006Z,8.90
2018-10-17T03:27:41.163Z,8.90
2018-10-17T03:30:09.331Z,8.80
2018-10-17T03:32:37.526Z,8.80
2018-10-17T03:35:05.838Z,8.70
2018-10-17T03:37:34.076Z,8.70
2018-10-17T03:40:02.290Z,8.60
2018-10-17T03:42:31.332Z,8.40
2018-10-17T03:44:59.563Z,8.40
2018-10-17T03:47:27.771Z,8.40
2018-10-17T03:49:56.095Z,8.40
2018-10-17T03:52:24.235Z,8.30
2018-10-17T03:54:52.527Z,8.30
2018-10-17T03:57:21.507Z,8.20
2018-10-17T03:59:49.861Z,8.20
2018-10-17T04:02:17.982Z,8.20
2018-10-17T04:04:46.219Z,8.10
2018-10-17T04:07:14.528Z,8.00
2018-10-17T04:09:42.743Z,8.00
2018-10-17T04:12:11.784Z,8.00
2018-10-17T04:14:39.969Z,8.00
2018-10-17T04:17:08.307Z,8.00
2018-10-17T04:19:36.502Z,8.00
2018-10-17T04:22:04.725Z,8.00
2018-10-17T04:24:32.981Z,8.00
2018-10-17T04:27:01.241Z,8.00
2018-10-17T04:29:29.481Z,8.00
2018-10-17T04:31:57.698Z,8.00
2018-10-17T04:34:25.946Z,8.00
2018-10-17T04:36:54.979Z,7.80
2018-10-17T04:39:23.910Z,7.60
2018-10-17T04:41:52.159Z,7.60
2018-10-17T04:44:20.374Z,7.70
2018-10-17T04:46:49.406Z,7.70
2018-10-17T04:49:17.754Z,7.70
2018-10-17T04:51:45.892Z,7.70
2018-10-17T04:54:14.137Z,7.50
2018-10-17T04:56:42.400Z,7.50
2018-10-17T04:59:11.374Z,7.60
2018-10-17T05:01:39.568Z,7.50
2018-10-17T05:04:07.801Z,7.60
2018-10-17T05:06:36.007Z,7.60
2018-10-17T05:09:05.029Z,7.20
2018-10-17T05:11:33.339Z,7.20
2018-10-17T05:14:01.589Z,7.30
2018-10-17T05:16:29.842Z,7.30
2018-10-17T05:18:58.106Z,7.30
2018-10-17T05:21:27.080Z,7.30
2018-10-17T05:23:55.326Z,7.30
2018-10-17T05:26:23.545Z,7.30
2018-10-17T05:28:52.589Z,7.40
2018-10-17T05:31:20.820Z,7.40
2018-10-17T05:33:49.786Z,7.40
2018-10-17T05:36:18.016Z,7.40
2018-10-17T05:38:46.261Z,7.50
2018-10-17T05:41:15.399Z,7.50
2018-10-17T05:43:43.523Z,7.50
2018-10-17T05:46:12.525Z,7.50
2018-10-17T05:48:41.522Z,7.40
2018-10-17T05:51:09.761Z,7.40
2018-10-17T05:53:38.044Z,7.40
2018-10-17T05:56:06.318Z,7.40
2018-10-17T05:58:34.602Z,7.40
2018-10-17T06:01:02.850Z,7.40
2018-10-17T06:03:31.104Z,7.40
2018-10-17T06:05:59.331Z,7.50
2018-10-17T06:08:27.600Z,7.50
2018-10-17T06:10:55.849Z,7.50
2018-10-17T06:13:24.234Z,7.60
2018-10-17T06:15:52.419Z,7.60
2018-10-17T06:18:20.640Z,7.60
2018-10-17T06:20:49.613Z,7.70
2018-10-17T06:23:19.394Z,7.70
2018-10-17T06:25:47.592Z,7.70
2018-10-17T06:28:15.860Z,7.70
2018-10-17T06:30:44.124Z,7.70
2018-10-17T06:33:12.325Z,7.80
2018-10-17T06:35:40.520Z,7.90
2018-10-17T06:38:09.531Z,7.90
2018-10-17T06:40:38.507Z,7.90
2018-10-17T06:43:07.504Z,7.90
2018-10-17T06:45:35.805Z,7.90
2018-10-17T06:48:04.022Z,8.00
2018-10-17T06:50:32.243Z,8.00
2018-10-17T06:53:01.290Z,8.10
2018-10-17T06:55:29.453Z,8.10
2018-10-17T06:57:57.697Z,8.20
2018-10-17T07:00:26.694Z,8.30
2018-10-17T07:02:55.681Z,8.30
2018-10-17T07:05:24.647Z,8.40
2018-10-17T07:07:52.890Z,8.40
2018-10-17T07:10:21.148Z,8.50
2018-10-17T07:12:50.193Z,8.70
2018-10-17T07:15:18.533Z,8.60
2018-10-17T07:17:46.708Z,8.80
2018-10-17T07:20:14.907Z,8.80
2018-10-17T07:22:43.129Z,9.00
2018-10-17T07:25:12.179Z,9.20
2018-10-17T07:27:40.363Z,9.20
2018-10-17T07:30:08.615Z,9.20
2018-10-17T07:32:36.823Z,9.20
2018-10-17T07:35:05.023Z,9.30
2018-10-17T07:37:34.013Z,9.50
2018-10-17T07:40:02.977Z,9.60
2018-10-17T07:42:31.199Z,9.60
2018-10-17T07:44:59.401Z,9.70
2018-10-17T07:47:27.619Z,9.80
2018-10-17T07:49:55.875Z,9.90
2018-10-17T07:52:24.098Z,10.00
2018-10-17T07:54:52.386Z,10.10
2018-10-17T07:57:21.401Z,10.40
2018-10-17T07:59:49.637Z,10.40
2018-10-17T08:02:17.819Z,10.50
2018-10-17T08:04:46.083Z,10.50
2018-10-17T08:07:14.294Z,10.60
2018-10-17T08:09:42.553Z,10.70
2018-10-17T08:12:10.827Z,10.90
2018-10-17T08:14:38.994Z,10.90
2018-10-17T08:17:07.985Z,11.20
2018-10-17T08:19:37.016Z,11.30
2018-10-17T08:22:05.277Z,11.30
2018-10-17T08:24:34.398Z,11.40
2018-10-17T08:27:03.594Z,11.50
2018-10-17T08:29:41.895Z,11.70
2018-10-17T08:32:10.134Z,11.80
2018-10-17T08:34:38.350Z,11.90
2018-10-17T08:37:07.163Z,12.10
2018-10-17T08:39:34.879Z,12.20
2018-10-17T08:42:03.864Z,12.50
2018-10-17T08:44:32.924Z,12.60
2018-10-17T08:47:01.192Z,12.60
2018-10-17T08:49:29.409Z,12.70
2018-10-17T08:51:58.404Z,12.80
2018-10-17T08:54:27.378Z,13.00
2018-10-17T08:56:55.612Z,12.90
2018-10-17T08:59:23.817Z,13.10
2018-10-17T09:01:52.093Z,13.20
2018-10-17T09:04:20.341Z,13.40
2018-10-17T09:06:48.601Z,13.50
2018-10-17T09:09:16.854Z,13.60
2018-10-17T09:11:45.842Z,13.80
2018-10-17T09:14:14.115Z,13.80
2018-10-17T09:16:42.343Z,13.90
2018-10-17T09:19:10.528Z,14.00
2018-10-17T09:21:39.289Z,14.20
2018-10-17T09:24:07.051Z,14.30
2018-10-17T09:26:35.248Z,14.40
2018-10-17T09:29:03.496Z,14.50
2018-10-17T09:31:32.521Z,14.70
2018-10-17T09:34:00.786Z,14.70
2018-10-17T09:36:29.762Z,15.00
2018-10-17T09:38:58.798Z,15.10
2018-10-17T09:41:27.041Z,15.10
2018-10-17T09:43:55.232Z,15.20
2018-10-17T09:46:23.482Z,15.40
2018-10-17T09:48:52.512Z,15.60
2018-10-17T09:51:20.794Z,15.60
2018-10-17T09:53:49.048Z,15.70
2018-10-17T09:56:17.265Z,15.90
2018-10-17T09:58:45.546Z,16.10
2018-10-17T10:01:13.814Z,16.20
2018-10-17T10:03:42.090Z,16.40
2018-10-17T10:06:10.364Z,16.50
2018-10-17T10:08:38.573Z,16.60
2018-10-17T10:11:08.416Z,16.90
2018-10-17T10:13:36.563Z,16.90
2018-10-17T10:16:04.908Z,17.00
2018-10-17T10:18:33.099Z,17.30
2018-10-17T10:21:01.361Z,17.50
2018-10-17T10:23:29.646Z,17.70
2018-10-17T10:25:57.854Z,17.90
2018-10-17T10:28:26.957Z,18.40
2018-10-17T10:30:55.113Z,18.30
2018-10-17T10:33:23.383Z,18.60
2018-10-17T10:35:51.678Z,18.70
2018-10-17T10:38:19.837Z,19.00
2018-10-17T10:40:48.105Z,19.20
2018-10-17T10:43:16.287Z,19.40
2018-10-17T10:45:44.505Z,19.60
2018-10-17T10:48:12.848Z,19.80
2018-10-17T10:50:41.807Z,20.10
2018-10-17T10:53:10.075Z,20.00
2018-10-17T10:55:38.297Z,20.20
2018-10-17T10:58:06.632Z,20.30
2018-10-17T11:00:34.750Z,20.50
2018-10-17T11:03:03.082Z,20.70
2018-10-17T11:05:32.248Z,21.20
2018-10-17T11:08:00.380Z,21.10
2018-10-17T11:10:29.317Z,21.40
2018-10-17T11:12:57.528Z,21.40
2018-10-17T11:15:25.739Z,21.60
2018-10-17T11:17:54.010Z,21.90
2018-10-17T11:20:22.228Z,22.00
2018-10-17T11:22:51.227Z,22.60
2018-10-17T11:25:19.479Z,22.60
2018-10-17T11:27:48.458Z,23.10
2018-10-17T11:30:17.443Z,23.30
2018-10-17T11:32:45.675Z,23.30
2018-10-17T11:35:14.153Z,23.60
2018-10-17T11:37:42.939Z,24.10
2018-10-17T11:40:12.033Z,24.20
2018-10-17T11:42:40.230Z,24.20
2018-10-17T11:45:08.466Z,24.50
2018-10-17T11:47:36.749Z,24.80
2018-10-17T11:50:04.951Z,25.00
2018-10-17T11:52:33.267Z,25.20
2018-10-17T11:55:01.557Z,25.50
2018-10-17T11:57:31.283Z,25.80
2018-10-17T12:00:00.270Z,26.10
2018-10-17T12:02:28.544Z,26.10
2018-10-17T12:04:57.941Z,26.50
2018-10-17T12:07:25.826Z,26.60
2018-10-17T12:09:54.843Z,27.20
2018-10-17T12:12:23.073Z,27.20
2018-10-17T12:14:51.394Z,27.40
2018-10-17T12:17:19.613Z,27.60
2018-10-17T12:19:47.923Z,27.90
2018-10-17T12:22:16.092Z,28.10
2018-10-17T12:24:44.300Z,28.70
2018-10-17T12:27:12.693Z,29.10
2018-10-17T12:29:40.863Z,29.70
2018-10-17T12:32:09.091Z,30.40
2018-10-17T12:34:37.305Z,31.20
2018-10-17T12:37:05.583Z,31.70
2018-10-17T12:39:33.870Z,32.20
2018-10-17T12:42:02.016Z,32.70
2018-10-17T12:44:31.003Z,33.20
2018-10-17T12:47:00.053Z,33.70
2018-10-17T12:49:28.265Z,33.70
2018-10-17T12:51:56.503Z,33.60
2018-10-17T12:54:24.722Z,33.80
2018-10-17T12:56:53.711Z,34.60
2018-10-17T12:59:21.939Z,34.50
2018-10-17T13:01:50.172Z,34.90
2018-10-17T13:04:19.171Z,34.90
2018-10-17T13:06:48.164Z,34.60
2018-10-17T13:09:16.375Z,34.60
2018-10-17T13:11:44.607Z,34.40
2018-10-17T13:14:13.600Z,34.50
2018-10-17T13:16:42.606Z,34.70
2018-10-17T13:19:10.851Z,34.70
2018-10-17T13:21:39.056Z,34.90
2018-10-17T13:24:07.265Z,34.70
2018-10-17T13:26:35.483Z,34.90
2018-10-17T13:29:03.729Z,35.40
2018-10-17T13:31:31.940Z,35.50
2018-10-17T13:34:00.199Z,35.80
2018-10-17T13:36:28.406Z,36.40
2018-10-17T13:38:57.436Z,36.90
2018-10-17T13:41:25.705Z,36.80
2018-10-17T13:43:53.924Z,36.80
2018-10-17T13:46:22.152Z,36.40
2018-10-17T13:48:50.404Z,35.80
2018-10-17T13:51:18.614Z,35.00
2018-10-17T13:53:46.869Z,34.40
2018-10-17T13:56:15.902Z,32.50
2018-10-17T13:58:44.115Z,32.50
2018-10-17T14:01:12.451Z,31.60
2018-10-17T14:03:41.420Z,31.20
2018-10-17T14:06:09.692Z,31.20
2018-10-17T14:08:37.864Z,30.90
2018-10-17T14:11:06.910Z,30.20
2018-10-17T14:13:35.143Z,30.20
2018-10-17T14:16:04.114Z,29.40
2018-10-17T14:18:32.405Z,29.40
2018-10-17T14:21:02.231Z,28.80
2018-10-17T14:23:30.499Z,28.80
2018-10-17T14:25:58.727Z,28.50
2018-10-17T14:28:27.021Z,27.90
2018-10-17T14:30:55.293Z,27.60
2018-10-17T14:33:23.544Z,27.30
2018-10-17T14:35:51.828Z,27.20
2018-10-17T14:38:20.082Z,27.00
2018-10-17T14:40:48.354Z,26.90
2018-10-17T14:43:17.317Z,26.50
2018-10-17T14:45:45.548Z,26.50
2018-10-17T14:48:13.774Z,26.20
2018-10-17T14:50:42.024Z,26.00
2018-10-17T14:53:10.314Z,25.90
2018-10-17T14:55:38.592Z,25.80
2018-10-17T14:58:06.755Z,25.60
2018-10-17T15:00:35.018Z,25.50
2018-10-17T15:03:03.290Z,25.30
2018-10-17T15:05:31.506Z,25.20
2018-10-17T15:07:59.735Z,25.10
2018-10-17T15:10:28.063Z,24.90
2018-10-17T15:12:56.409Z,24.80
2018-10-17T15:15:24.598Z,24.60
2018-10-17T15:17:52.914Z,24.50
2018-10-17T15:20:21.111Z,24.50
2018-10-17T15:22:49.332Z,24.40
2018-10-17T15:25:17.543Z,24.30
2018-10-17T15:27:45.789Z,24.20
2018-10-17T15:30:14.166Z,24.10
2018-10-17T15:32:42.394Z,24.00
2018-10-17T15:35:10.641Z,23.90
2018-10-17T15:37:38.861Z,23.70
2018-10-17T15:40:07.120Z,23.60
2018-10-17T15:42:35.349Z,23.50
2018-10-17T15:45:03.651Z,23.40
2018-10-17T15:47:31.837Z,23.30
2018-10-17T15:50:00.062Z,23.20
2018-10-17T15:52:28.346Z,23.00
2018-10-17T15:54:56.605Z,22.90
2018-10-17T15:57:24.821Z,22.80
2018-10-17T15:59:53.810Z,22.50
2018-10-17T16:02:22.170Z,22.50
2018-10-17T16:04:50.262Z,22.30
2018-10-17T16:07:19.336Z,21.90
2018-10-17T16:09:47.590Z,21.90
2018-10-17T16:12:15.942Z,21.80
2018-10-17T16:14:44.059Z,21.60
2018-10-17T16:17:12.386Z,21.50
2018-10-17T16:19:40.513Z,21.40
2018-10-17T16:22:08.785Z,21.20
2018-10-17T16:24:37.033Z,21.10
2018-10-17T16:27:05.325Z,21.00
2018-10-17T16:29:33.562Z,20.90
2018-10-17T16:32:02.614Z,20.60
2018-10-17T16:34:30.753Z,20.60
2018-10-17T16:36:59.027Z,20.50
2018-10-17T16:39:27.246Z,20.40
2018-10-17T16:41:55.495Z,20.20
2018-10-17T16:44:23.724Z,20.00
2018-10-17T16:46:52.006Z,19.80
2018-10-17T16:49:20.350Z,19.60
2018-10-17T16:51:48.555Z,19.50
2018-10-17T16:54:16.893Z,19.30
2018-10-17T16:56:45.083Z,19.20
2018-10-17T16:59:13.292Z,19.10
2018-10-17T17:01:41.521Z,19.00
2018-10-17T17:04:09.807Z,18.80
2018-10-17T17:06:38.023Z,18.80
2018-10-17T17:09:07.022Z,18.60
2018-10-17T17:11:35.220Z,18.60
2018-10-17T17:14:03.498Z,18.40
2018-10-17T17:16:31.802Z,18.20
2018-10-17T17:19:00.792Z,17.90
2018-10-17T17:21:29.032Z,17.90
2018-10-17T17:23:58.056Z,17.70
2018-10-17T17:26:27.017Z,17.60
2018-10-17T17:28:55.277Z,17.60
2018-10-17T17:31:23.550Z,17.50
2018-10-17T17:33:51.772Z,17.50
2018-10-17T17:36:20.054Z,17.30
2018-10-17T17:38:48.270Z,17.20
2018-10-17T17:41:16.508Z,17.10
2018-10-17T17:43:44.761Z,17.10
2018-10-17T17:46:13.058Z,17.00
2018-10-17T17:48:42.024Z,16.90
2018-10-17T17:51:11.012Z,16.90
2018-10-17T17:53:40.030Z,16.80
2018-10-17T17:56:08.294Z,16.80
2018-10-17T17:58:37.417Z,16.70
2018-10-17T18:01:05.538Z,16.70
2018-10-17T18:03:33.795Z,16.60
2018-10-17T18:06:02.021Z,16.60
2018-10-17T18:08:31.024Z,16.40
2018-10-17T18:10:59.251Z,16.40
2018-10-17T18:13:27.502Z,16.30
2018-10-17T18:15:55.743Z,16.20
2018-10-17T18:18:23.944Z,16.20
2018-10-17T18:20:52.206Z,16.10
2018-10-17T18:23:20.429Z,16.00
2018-10-17T18:25:48.698Z,16.00
2018-10-17T18:28:17.057Z,15.90
2018-10-17T18:30:45.192Z,15.80
2018-10-17T18:33:14.186Z,15.70
2018-10-17T18:35:43.217Z,15.70
2018-10-17T18:38:11.470Z,15.60
2018-10-17T18:40:39.858Z,15.70
2018-10-17T18:43:07.975Z,15.60
2018-10-17T18:45:36.279Z,15.60
2018-10-17T18:48:04.760Z,15.40
2018-10-17T18:50:33.744Z,15.20
2018-10-17T18:53:02.010Z,15.20
2018-10-17T18:55:30.216Z,15.10
2018-10-17T18:57:59.209Z,15.00
2018-10-17T19:00:28.212Z,15.00
2018-10-17T19:02:57.218Z,14.90
2018-10-17T19:05:26.606Z,14.90
2018-10-17T19:07:55.687Z,14.90
2018-10-17T19:10:23.937Z,14.80
2018-10-17T19:12:52.209Z,14.80
2018-10-17T19:15:20.459Z,14.80
2018-10-17T19:17:48.695Z,14.70
2018-10-17T19:20:16.902Z,14.70
2018-10-17T19:22:45.177Z,14.60
2018-10-17T19:25:13.442Z,14.50
2018-10-17T19:27:42.461Z,14.40
2018-10-17T19:30:10.999Z,14.40
2018-10-17T19:32:39.225Z,14.40
2018-10-17T19:35:07.440Z,14.40
2018-10-17T19:37:35.733Z,14.30
2018-10-17T19:40:04.741Z,14.20
2018-10-17T19:42:33.747Z,14.10
2018-10-17T19:45:02.043Z,14.10
2018-10-17T19:47:31.048Z,14.00
2018-10-17T19:49:59.249Z,14.00
2018-10-17T19:52:27.489Z,14.00
2018-10-17T19:54:55.717Z,13.90
2018-10-17T19:57:23.980Z,13.70
2018-10-17T19:59:52.509Z,13.70
2018-10-17T20:02:21.515Z,13.60
2018-10-17T20:04:49.744Z,13.60
2018-10-17T20:07:17.978Z,13.30
2018-10-17T20:09:46.194Z,13.30
2018-10-17T20:12:14.413Z,13.30
2018-10-17T20:14:42.684Z,13.30
2018-10-17T20:17:11.666Z,13.30
2018-10-17T20:19:40.666Z,13.30
2018-10-17T20:22:08.894Z,13.20
2018-10-17T20:24:37.126Z,13.20
2018-10-17T20:27:06.157Z,13.10
2018-10-17T20:29:34.365Z,13.00
2018-10-17T20:32:02.615Z,13.00
2018-10-17T20:34:31.158Z,12.90
2018-10-17T20:37:00.131Z,12.70
2018-10-17T20:39:29.147Z,12.70
2018-10-17T20:41:57.380Z,12.70
2018-10-17T20:44:25.582Z,12.70
2018-10-17T20:46:54.613Z,12.60
2018-10-17T20:49:22.831Z,12.60
2018-10-17T20:51:51.133Z,12.60
2018-10-17T20:54:20.151Z,12.40
2018-10-17T20:56:48.419Z,12.40
2018-10-17T20:59:16.994Z,12.40
2018-10-17T21:01:45.981Z,12.20
2018-10-17T21:04:15.029Z,12.00
2018-10-17T21:06:43.310Z,12.00
2018-10-17T21:09:11.567Z,12.00
2018-10-17T21:11:39.787Z,11.90
2018-10-17T21:14:08.098Z,11.90
2018-10-17T21:16:36.318Z,11.90
2018-10-17T21:19:04.591Z,11.90
2018-10-17T21:21:32.812Z,11.90
2018-10-17T21:24:01.859Z,11.70
2018-10-17T21:26:30.063Z,11.70
2018-10-17T21:28:58.288Z,11.60
2018-10-17T21:31:26.505Z,11.50
2018-10-17T21:33:54.742Z,11.50
2018-10-17T21:36:22.993Z,11.50
2018-10-17T21:38:51.983Z,11.50
2018-10-17T21:41:20.968Z,11.30
2018-10-17T21:43:49.999Z,11.20
2018-10-17T21:46:18.257Z,11.10
2018-10-17T21:48:46.491Z,11.10
2018-10-17T21:51:14.743Z,11.10
2018-10-17T21:53:42.969Z,11.10
2018-10-17T21:56:12.017Z,11.10
2018-10-17T21:58:40.179Z,11.10
2018-10-17T22:01:08.431Z,11.10
2018-10-17T22:03:37.417Z,11.00
2018-10-17T22:06:06.387Z,11.00
2018-10-17T22:08:34.677Z,11.00
2018-10-17T22:11:02.922Z,11.00
2018-10-17T22:13:31.208Z,11.00
2018-10-17T22:15:59.402Z,10.90
2018-10-17T22:18:28.397Z,10.90
2018-10-17T22:20:56.646Z,10.80
2018-10-17T22:23:24.917Z,10.80
2018-10-17T22:25:53.176Z,10.80
2018-10-17T22:28:21.437Z,10.80
2018-10-17T22:30:49.660Z,10.70
2018-10-17T22:33:17.936Z,10.70
2018-10-17T22:35:46.138Z,10.60
2018-10-17T22:38:15.168Z,10.50
2018-10-17T22:40:43.422Z,10.50
2018-10-17T22:43:12.410Z,10.50
2018-10-17T22:45:41.428Z,10.50
2018-10-17T22:48:09.702Z,10.50
2018-10-17T22:50:37.932Z,10.50
2018-10-17T22:53:06.178Z,10.50
2018-10-17T22:55:34.390Z,10.40
2018-10-17T22:58:02.890Z,10.40
2018-10-17T23:00:31.883Z,10.30
2018-10-17T23:03:00.877Z,10.20
2018-10-17T23:05:29.903Z,10.20
2018-10-17T23:07:58.196Z,10.20
2018-10-17T23:10:27.178Z,10.20
2018-10-17T23:12:55.396Z,10.10
2018-10-17T23:15:23.616Z,10.10
2018-10-17T23:17:52.596Z,9.90
2018-10-17T23:20:21.607Z,9.90
2018-10-17T23:22:49.868Z,9.90
2018-10-17T23:25:18.896Z,9.90
2018-10-17T23:27:47.178Z,9.90
2018-10-17T23:30:15.410Z,9.80
2018-10-17T23:32:44.446Z,9.80
2018-10-17T23:35:12.680Z,9.70
2018-10-17T23:37:41.688Z,9.80
2018-10-17T23:40:10.660Z,9.90
2018-10-17T23:42:39.745Z,9.90
2018-10-17T23:45:07.942Z,9.90
2018-10-17T23:47:36.200Z,9.90
2018-10-17T23:50:04.446Z,9.90
2018-10-17T23:52:32.683Z,9.90
2018-10-17T23:55:01.699Z,9.90
2018-10-17T23:57:29.899Z,9.90
2018-10-17T23:59:58.263Z,9.90
